Time;durP1;ratioP1;P1;durP2;ratioP2;P2;SDS_P1;SDS_P2;PMS_P1;PMS_P2;Temp;Humidity;BMP_temperature;BMP_pressure;BME280_temperature;BME280_humidity;BME280_pressure;Samples;Min_cycle;Max_cycle;Signal;HPM_P1;HPM_P2
2023/02/25 00:01:42;;;;;;;10.60;10.10;;;8.00;12.50;;;;;;5054459;28;20982;-76
2023/02/25 00:04:21;;;;;;;11.40;10.70;;;8.00;1.60;;;;;;5051544;28;20479;-78
2023/02/25 00:06:49;;;;;;;11.20;10.60;;;8.00;1.00;;;;;;5053517;28;20810;-76
2023/02/25 00:09:17;;;;;;;11.13;10.53;;;7.90;1.00;;;;;;5049840;28;20450;-76
2023/02/25 00:11:45;;;;;;;10.67;10.03;;;7.90;2.40;;;;;;5050084;28;20461;-77
2023/02/25 00:14:15;;;;;;;11.80;11.10;;;7.90;1.00;;;;;;5053582;28;21010;-79
2023/02/25 00:16:43;;;;;;;11.77;11.17;;;7.90;9.30;;;;;;5049993;28;20453;-78
2023/02/25 00:19:11;;;;;;;11.50;10.80;;;7.80;18.30;;;;;;5055337;28;20695;-79
2023/02/25 00:21:40;;;;;;;12.03;11.33;;;7.90;52.50;;;;;;5059661;28;20501;-79
2023/02/25 00:24:08;;;;;;;11.90;11.20;;;7.90;43.10;;;;;;5058105;28;20967;-79
2023/02/25 00:26:43;;;;;;;10.80;10.20;;;7.90;30.00;;;;;;5053408;28;20452;-77
2023/02/25 00:29:11;;;;;;;12.77;11.80;;;7.90;45.50;;;;;;5056813;28;20463;-78
2023/02/25 00:31:41;;;;;;;11.10;10.50;;;8.00;5.70;;;;;;5058393;28;20489;-77
2023/02/25 00:34:09;;;;;;;11.17;10.60;;;7.80;1.00;;;;;;5055414;28;20873;-77
2023/02/25 00:36:38;;;;;;;11.20;10.50;;;7.90;13.80;;;;;;5060539;28;21036;-80
2023/02/25 00:39:07;;;;;;;11.63;10.90;;;7.80;41.50;;;;;;5058274;28;20544;-78
2023/02/25 00:41:36;;;;;;;11.60;10.90;;;7.90;62.90;;;;;;5053526;28;21143;-79
2023/02/25 00:44:04;;;;;;;12.10;11.30;;;7.90;91.60;;;;;;5069696;28;20560;-78
2023/02/25 00:46:33;;;;;;;12.00;11.30;;;7.90;87.70;;;;;;5053146;28;20459;-78
2023/02/25 00:49:03;;;;;;;10.73;10.27;;;7.90;91.10;;;;;;5059179;28;20500;-78
2023/02/25 00:51:32;;;;;;;11.93;11.33;;;7.90;99.90;;;;;;5057287;28;20455;-77
2023/02/25 00:54:01;;;;;;;12.20;11.60;;;7.80;95.30;;;;;;5059405;28;20479;-78
2023/02/25 00:56:29;;;;;;;11.67;11.07;;;7.80;99.90;;;;;;5060322;28;20870;-78
2023/02/25 00:58:59;;;;;;;11.50;10.90;;;7.80;99.90;;;;;;5055744;28;20464;-76
2023/02/25 01:01:29;;;;;;;12.30;11.60;;;7.80;99.90;;;;;;5054449;28;20462;-75
2023/02/25 01:03:58;;;;;;;13.00;12.30;;;7.80;99.90;;;;;;5057793;28;21457;-79
2023/02/25 01:06:30;;;;;;;11.17;10.67;;;7.80;99.90;;;;;;5058151;28;20553;-79
2023/02/25 01:08:59;;;;;;;13.20;12.50;;;7.80;99.90;;;;;;5073690;28;20518;-79
2023/02/25 01:11:30;;;;;;;11.97;11.37;;;7.90;99.90;;;;;;5058217;28;20551;-78
2023/02/25 01:14:00;;;;;;;11.90;11.20;;;7.90;99.90;;;;;;5059133;28;20898;-79
2023/02/25 01:16:30;;;;;;;11.80;11.10;;;7.90;99.90;;;;;;5061379;28;20494;-78
2023/02/25 01:19:01;;;;;;;12.10;11.40;;;7.80;99.90;;;;;;5061833;28;20455;-77
2023/02/25 01:21:34;;;;;;;12.27;11.67;;;7.80;99.90;;;;;;5060262;28;20527;-79
2023/02/25 01:24:06;;;;;;;12.27;11.67;;;7.80;99.90;;;;;;5058784;28;20492;-77
2023/02/25 01:26:36;;;;;;;11.80;11.07;;;7.80;99.90;;;;;;5055510;28;20464;-77
2023/02/25 01:29:07;;;;;;;11.77;11.03;;;7.80;99.90;;;;;;5058894;28;20464;-80
2023/02/25 01:31:36;;;;;;;11.43;10.80;;;7.80;99.90;;;;;;5058105;28;20472;-79
2023/02/25 01:34:07;;;;;;;11.50;11.00;;;7.80;99.90;;;;;;5058569;28;20472;-77
2023/02/25 01:36:37;;;;;;;11.57;11.00;;;7.80;99.90;;;;;;5050444;28;20452;-76
2023/02/25 01:39:05;;;;;;;12.30;11.30;;;7.80;99.90;;;;;;5055115;28;20447;-77
2023/02/25 01:41:37;;;;;;;12.57;11.60;;;7.80;73.10;;;;;;5058936;28;20459;-78
2023/02/25 01:44:11;;;;;;;13.10;12.03;;;7.80;91.00;;;;;;5055709;28;20478;-78
2023/02/25 01:46:41;;;;;;;12.17;11.47;;;7.80;98.40;;;;;;5056690;28;20814;-76
2023/02/25 01:49:13;;;;;;;11.50;10.90;;;7.80;29.10;;;;;;5060026;28;20526;-79
2023/02/25 01:51:45;;;;;;;11.93;11.23;;;7.80;40.40;;;;;;5055759;28;20491;-77
2023/02/25 01:54:14;;;;;;;12.17;11.37;;;7.70;96.30;;;;;;5058508;28;20556;-77
2023/02/25 01:56:48;;;;;;;13.23;12.23;;;7.80;90.20;;;;;;5056334;28;20449;-79
2023/02/25 01:59:17;;;;;;;12.03;11.23;;;7.80;76.10;;;;;;5057249;28;20687;-77
2023/02/25 02:01:46;;;;;;;12.50;11.73;;;7.70;63.40;;;;;;5054895;28;20967;-78
2023/02/25 02:04:16;;;;;;;11.60;10.97;;;7.70;31.90;;;;;;5059419;28;20483;-77
2023/02/25 02:06:47;;;;;;;11.27;10.63;;;7.80;1.00;;;;;;5057996;28;20448;-77
2023/02/25 02:09:19;;;;;;;11.77;11.20;;;7.70;1.00;;;;;;5059978;28;20474;-77
2023/02/25 02:11:48;;;;;;;11.90;11.30;;;7.70;1.00;;;;;;5056650;28;20449;-77
2023/02/25 02:14:20;;;;;;;12.97;12.17;;;7.70;1.00;;;;;;5057830;28;20967;-78
2023/02/25 02:17:09;;;;;;;11.47;10.80;;;7.80;1.00;;;;;;5055352;28;20460;-76
2023/02/25 02:19:55;;;;;;;11.43;10.70;;;7.70;5.00;;;;;;5058122;28;20463;-77
2023/02/25 02:22:34;;;;;;;12.00;11.03;;;7.70;1.00;;;;;;5054514;28;20448;-77
2023/02/25 02:25:35;;;;;;;11.80;10.93;;;7.70;1.00;;;;;;5050553;28;20489;-77
2023/02/25 02:28:46;;;;;;;12.40;11.60;;;7.70;1.00;;;;;;5053314;28;20458;-76
2023/02/25 02:31:38;;;;;;;11.37;10.77;;;7.60;1.00;;;;;;5037677;28;20571;-74
2023/02/25 02:34:18;;;;;;;10.87;10.17;;;7.50;1.00;;;;;;5056814;28;20475;-77
2023/02/25 02:36:56;;;;;;;11.50;10.80;;;7.50;1.00;;;;;;5058192;28;21105;-78
2023/02/25 02:39:31;;;;;;;11.40;10.67;;;7.50;1.00;;;;;;5056950;28;20476;-77
2023/02/25 02:42:08;;;;;;;11.47;10.67;;;7.50;1.00;;;;;;5059437;28;20481;-76
2023/02/25 02:44:43;;;;;;;11.73;10.83;;;7.50;1.00;;;;;;5055893;28;20463;-78
2023/02/25 02:47:18;;;;;;;10.80;10.00;;;7.40;1.00;;;;;;5055476;28;20461;-79
2023/02/25 02:49:49;;;;;;;11.13;10.33;;;7.40;1.00;;;;;;5055453;28;20546;-78
2023/02/25 02:52:22;;;;;;;10.67;10.03;;;7.40;1.00;;;;;;5054828;28;20482;-76
2023/02/25 02:54:56;;;;;;;10.90;10.30;;;7.40;1.00;;;;;;5054090;28;20451;-75
2023/02/25 02:57:27;;;;;;;12.27;11.47;;;7.40;1.00;;;;;;5058155;28;20482;-77
2023/02/25 03:00:00;;;;;;;10.53;9.90;;;7.30;1.00;;;;;;5053603;28;20483;-77
2023/02/25 03:02:35;;;;;;;10.70;9.90;;;7.40;1.00;;;;;;5052914;28;20654;-78
2023/02/25 03:05:11;;;;;;;10.97;10.10;;;7.40;1.00;;;;;;5058213;28;20474;-75
2023/02/25 03:07:45;;;;;;;11.20;10.40;;;7.40;1.00;;;;;;5057874;28;20456;-77
2023/02/25 03:10:18;;;;;;;10.70;10.10;;;7.40;1.00;;;;;;5052505;28;20858;-76
2023/02/25 03:12:46;;;;;;;10.40;9.80;;;7.40;1.00;;;;;;5054536;28;20512;-78
2023/02/25 03:15:14;;;;;;;10.23;9.73;;;7.40;1.00;;;;;;5054662;28;20462;-78
2023/02/25 03:17:48;;;;;;;10.33;9.70;;;7.30;1.00;;;;;;5056537;28;20507;-78
2023/02/25 03:20:20;;;;;;;10.57;9.90;;;7.20;1.00;;;;;;5055462;28;21128;-80
2023/02/25 03:22:51;;;;;;;10.50;9.90;;;7.30;1.00;;;;;;5055234;28;20485;-78
2023/02/25 03:25:23;;;;;;;10.20;9.43;;;7.30;1.00;;;;;;5057530;28;20488;-79
2023/02/25 03:27:55;;;;;;;10.73;10.03;;;7.20;1.00;;;;;;5056596;28;20461;-76
2023/02/25 03:30:29;;;;;;;10.80;10.23;;;7.20;1.00;;;;;;5056032;28;20463;-78
2023/02/25 03:33:03;;;;;;;10.47;9.90;;;7.30;1.00;;;;;;5052503;28;20517;-78
2023/02/25 03:35:34;;;;;;;10.93;10.27;;;7.30;1.00;;;;;;5057244;28;20457;-77
2023/02/25 03:38:06;;;;;;;10.13;9.53;;;7.30;1.00;;;;;;5054793;28;20451;-78
2023/02/25 03:40:36;;;;;;;9.40;8.90;;;7.20;1.00;;;;;;5058337;28;20508;-77
2023/02/25 03:43:09;;;;;;;9.53;8.97;;;7.20;1.00;;;;;;5055720;28;20557;-77
2023/02/25 03:45:40;;;;;;;10.10;9.30;;;7.30;1.00;;;;;;5052564;28;20486;-77
2023/02/25 03:48:12;;;;;;;9.00;8.53;;;7.30;1.00;;;;;;5053344;28;20457;-77
2023/02/25 03:50:44;;;;;;;9.27;8.87;;;7.30;1.00;;;;;;5054820;28;20463;-77
2023/02/25 03:53:12;;;;;;;8.93;8.57;;;7.40;1.00;;;;;;5054052;28;20484;-79
2023/02/25 03:55:41;;;;;;;9.30;8.90;;;7.30;1.00;;;;;;5058571;28;20454;-79
2023/02/25 03:58:09;;;;;;;10.00;9.40;;;7.30;1.00;;;;;;5054847;28;20508;-76
2023/02/25 04:00:40;;;;;;;10.10;9.60;;;7.20;1.00;;;;;;5053543;28;21050;-76
2023/02/25 04:03:11;;;;;;;9.60;9.10;;;7.30;1.00;;;;;;5053510;28;20518;-77
2023/02/25 04:05:39;;;;;;;9.00;8.70;;;7.30;1.00;;;;;;5055430;28;20533;-77
2023/02/25 04:08:14;;;;;;;9.70;9.20;;;7.30;1.00;;;;;;5054669;28;20543;-77
2023/02/25 04:10:43;;;;;;;10.23;9.50;;;7.20;1.00;;;;;;5052621;28;20476;-78
2023/02/25 04:13:11;;;;;;;9.30;8.80;;;7.20;1.00;;;;;;5055250;28;20480;-75
2023/02/25 04:15:39;;;;;;;9.50;9.07;;;7.20;1.00;;;;;;5052724;28;20804;-77
2023/02/25 04:18:08;;;;;;;10.30;9.50;;;7.20;1.00;;;;;;5052466;28;20452;-76
2023/02/25 04:20:37;;;;;;;10.13;9.57;;;7.20;1.00;;;;;;5052607;28;20509;-75
2023/02/25 04:23:06;;;;;;;9.53;9.03;;;7.20;1.00;;;;;;5054350;28;20464;-77
2023/02/25 04:25:36;;;;;;;9.57;8.97;;;7.20;1.00;;;;;;5054443;28;20875;-77
2023/02/25 04:28:04;;;;;;;8.90;8.50;;;7.20;1.00;;;;;;5051718;28;20451;-77
2023/02/25 04:30:32;;;;;;;8.40;8.00;;;7.10;1.00;;;;;;5053376;28;21160;-78
2023/02/25 04:33:01;;;;;;;9.43;8.50;;;7.10;1.00;;;;;;5049148;28;20475;-76
2023/02/25 04:35:29;;;;;;;8.60;8.10;;;7.10;1.00;;;;;;5052004;28;20451;-77
2023/02/25 04:37:59;;;;;;;7.70;7.20;;;7.20;1.00;;;;;;5056021;28;20462;-78
2023/02/25 04:40:27;;;;;;;7.30;6.90;;;7.10;1.00;;;;;;5053712;28;20442;-78
2023/02/25 04:42:56;;;;;;;7.10;6.70;;;7.10;99.90;;;;;;5055624;28;20483;-77
2023/02/25 04:45:24;;;;;;;6.90;6.57;;;7.20;99.90;;;;;;5056155;28;20448;-78
2023/02/25 04:47:56;;;;;;;6.20;6.00;;;7.10;99.90;;;;;;5055559;28;20446;-79
2023/02/25 04:50:27;;;;;;;6.50;6.30;;;7.00;99.90;;;;;;5057827;28;20562;-76
2023/02/25 04:52:57;;;;;;;6.50;6.00;;;7.00;99.90;;;;;;5054852;28;20579;-77
2023/02/25 04:55:26;;;;;;;6.77;6.33;;;7.00;99.90;;;;;;5053322;28;20450;-76
2023/02/25 04:57:55;;;;;;;6.33;5.93;;;7.00;99.90;;;;;;5054366;28;20451;-77
2023/02/25 05:00:24;;;;;;;5.20;5.10;;;6.90;99.90;;;;;;5045475;28;20475;-74
2023/02/25 05:02:52;;;;;;;5.40;5.20;;;6.90;99.90;;;;;;5055859;28;20498;-75
2023/02/25 05:05:20;;;;;;;5.30;5.13;;;6.90;99.90;;;;;;5050217;28;20505;-77
2023/02/25 05:07:48;;;;;;;6.07;5.57;;;6.90;99.90;;;;;;5058831;28;20459;-77
2023/02/25 05:10:16;;;;;;;5.83;5.63;;;6.90;99.90;;;;;;5059797;28;20566;-77
2023/02/25 05:12:47;;;;;;;6.53;5.50;;;7.00;99.90;;;;;;5061158;28;20538;-78
2023/02/25 05:15:15;;;;;;;5.50;5.10;;;6.90;99.90;;;;;;5059896;28;20454;-77
2023/02/25 05:17:43;;;;;;;5.53;5.30;;;6.80;99.90;;;;;;5058338;28;20451;-78
2023/02/25 05:20:11;;;;;;;6.30;5.90;;;6.80;99.90;;;;;;5058720;28;20448;-78
2023/02/25 05:22:40;;;;;;;5.47;5.20;;;6.80;99.90;;;;;;5058369;28;20495;-78
2023/02/25 05:25:10;;;;;;;5.60;5.30;;;6.80;99.90;;;;;;5058068;28;20459;-79
2023/02/25 05:27:38;;;;;;;5.40;5.20;;;6.80;99.90;;;;;;5063172;28;20486;-77
2023/02/25 05:30:10;;;;;;;5.80;5.40;;;6.80;99.90;;;;;;5056694;28;20493;-78
2023/02/25 05:32:38;;;;;;;5.63;5.30;;;6.80;99.90;;;;;;5057299;28;21069;-77
2023/02/25 05:35:08;;;;;;;5.97;5.63;;;6.90;99.90;;;;;;5055309;28;20475;-76
2023/02/25 05:37:37;;;;;;;5.90;5.60;;;6.80;99.90;;;;;;5056719;28;21088;-79
2023/02/25 05:40:08;;;;;;;5.70;5.40;;;6.80;99.90;;;;;;5050577;28;20452;-74
2023/02/25 05:42:37;;;;;;;5.60;5.40;;;6.70;99.90;;;;;;5060198;28;20477;-78
2023/02/25 05:45:08;;;;;;;6.03;5.80;;;6.80;99.90;;;;;;5058806;28;20468;-78
2023/02/25 05:47:36;;;;;;;5.60;5.30;;;6.80;99.90;;;;;;5057044;28;21019;-78
2023/02/25 05:50:05;;;;;;;6.17;5.70;;;6.80;99.90;;;;;;5054926;28;20831;-75
2023/02/25 05:52:33;;;;;;;5.80;5.53;;;6.80;99.90;;;;;;5061075;28;20519;-78
2023/02/25 05:55:01;;;;;;;6.17;5.87;;;6.70;99.90;;;;;;5061408;28;20457;-79
2023/02/25 05:57:30;;;;;;;10.63;7.33;;;6.70;99.90;;;;;;5059644;28;20451;-76
2023/02/25 05:59:58;;;;;;;6.27;5.93;;;6.70;99.90;;;;;;5054250;28;20470;-76
2023/02/25 06:02:27;;;;;;;5.97;5.77;;;6.70;99.90;;;;;;5054548;28;20541;-77
2023/02/25 06:04:56;;;;;;;6.10;5.90;;;6.80;99.90;;;;;;5059747;28;20949;-77
2023/02/25 06:07:24;;;;;;;6.47;5.90;;;6.70;99.90;;;;;;5057726;28;20478;-79
2023/02/25 06:09:53;;;;;;;5.63;5.47;;;6.70;99.90;;;;;;5060732;28;20463;-77
2023/02/25 06:12:22;;;;;;;6.30;5.80;;;6.80;99.90;;;;;;5060130;28;20499;-76
2023/02/25 06:14:50;;;;;;;6.37;6.00;;;6.70;99.90;;;;;;5055964;28;20534;-76
2023/02/25 06:17:18;;;;;;;5.77;5.47;;;6.70;99.90;;;;;;5056377;28;20459;-76
2023/02/25 06:19:47;;;;;;;5.63;5.33;;;6.70;99.90;;;;;;5060333;28;20459;-75
2023/02/25 06:22:15;;;;;;;6.10;5.40;;;6.70;99.90;;;;;;5056620;28;20436;-78
2023/02/25 06:24:44;;;;;;;5.50;5.40;;;6.70;99.90;;;;;;5056085;28;20455;-77
2023/02/25 06:27:12;;;;;;;5.60;5.40;;;6.60;99.90;;;;;;5058569;28;20481;-78
2023/02/25 06:29:41;;;;;;;5.60;5.40;;;6.60;99.90;;;;;;5054180;28;20466;-77
2023/02/25 06:32:09;;;;;;;5.60;5.40;;;6.60;99.90;;;;;;5048997;28;20463;-77
2023/02/25 06:34:38;;;;;;;6.17;5.87;;;6.60;99.90;;;;;;5055980;28;20873;-76
2023/02/25 06:37:08;;;;;;;5.17;4.97;;;6.70;99.90;;;;;;5053700;28;20830;-77
2023/02/25 06:39:36;;;;;;;5.27;4.90;;;6.70;99.90;;;;;;5056455;28;20459;-74
2023/02/25 06:42:04;;;;;;;6.07;5.60;;;6.60;99.90;;;;;;5060306;28;20457;-77
2023/02/25 06:44:33;;;;;;;5.83;5.60;;;6.60;99.90;;;;;;5059349;28;20467;-76
2023/02/25 06:47:01;;;;;;;5.33;5.03;;;6.70;99.90;;;;;;5054559;28;20475;-76
2023/02/25 06:49:29;;;;;;;5.60;5.30;;;6.70;99.90;;;;;;5054245;28;20455;-76
2023/02/25 06:51:58;;;;;;;5.63;5.43;;;6.60;99.90;;;;;;5052317;28;20537;-77
2023/02/25 06:54:27;;;;;;;5.90;5.60;;;6.60;99.90;;;;;;5054592;28;20509;-76
2023/02/25 06:56:55;;;;;;;5.43;5.23;;;6.70;99.90;;;;;;5056241;28;20464;-77
2023/02/25 06:59:24;;;;;;;5.90;5.70;;;6.70;99.90;;;;;;5057512;28;20463;-78
2023/02/25 07:01:52;;;;;;;5.67;5.33;;;6.80;99.90;;;;;;5055906;28;20794;-77
2023/02/25 07:04:20;;;;;;;6.17;5.63;;;6.80;99.90;;;;;;5053985;28;20486;-77
2023/02/25 07:06:48;;;;;;;5.40;5.20;;;6.70;99.90;;;;;;5057516;28;20483;-74
2023/02/25 07:09:16;;;;;;;6.07;5.67;;;6.80;99.90;;;;;;5056969;28;20453;-77
2023/02/25 07:11:45;;;;;;;6.22;5.93;;;6.80;99.90;;;;;;5053431;28;20474;-78
2023/02/25 07:14:15;;;;;;;6.50;6.00;;;6.90;99.90;;;;;;5056477;28;20307;-78
2023/02/25 07:16:43;;;;;;;6.57;6.10;;;6.90;99.90;;;;;;5056287;28;21002;-76
2023/02/25 07:19:13;;;;;;;6.40;6.10;;;6.80;99.90;;;;;;5059895;28;20512;-77
2023/02/25 07:21:42;;;;;;;6.00;5.80;;;6.90;99.90;;;;;;5054984;28;20459;-78
2023/02/25 07:24:10;;;;;;;6.40;5.80;;;7.10;99.90;;;;;;5056574;28;20514;-76
2023/02/25 07:26:38;;;;;;;6.93;6.50;;;7.10;99.90;;;;;;5054149;28;20545;-78
2023/02/25 07:29:08;;;;;;;5.90;5.40;;;7.10;99.90;;;;;;5047771;28;20469;-76
2023/02/25 07:31:36;;;;;;;5.50;5.20;;;7.20;99.90;;;;;;5054258;28;20448;-76
2023/02/25 07:34:06;;;;;;;5.97;5.77;;;7.20;99.90;;;;;;5060323;28;20477;-77
2023/02/25 07:36:36;;;;;;;5.97;5.40;;;7.30;99.90;;;;;;5058349;28;20454;-77
2023/02/25 07:39:06;;;;;;;6.40;6.10;;;7.30;99.90;;;;;;5057253;28;20442;-76
2023/02/25 07:41:34;;;;;;;6.80;6.40;;;7.40;99.90;;;;;;5054902;28;20529;-77
2023/02/25 07:44:03;;;;;;;5.07;4.90;;;7.40;99.90;;;;;;5053110;28;20674;-76
2023/02/25 07:46:33;;;;;;;4.47;4.37;;;7.60;99.90;;;;;;5042748;28;20459;-76
2023/02/25 07:49:02;;;;;;;5.40;5.00;;;7.70;99.90;;;;;;5050211;28;20479;-78
2023/02/25 07:51:30;;;;;;;5.30;5.00;;;8.00;99.90;;;;;;5052491;28;20519;-78
2023/02/25 07:54:02;;;;;;;5.47;5.13;;;8.40;99.90;;;;;;5059307;22;20481;-77
2023/02/25 07:56:30;;;;;;;5.00;4.70;;;8.80;99.90;;;;;;5072930;28;20452;-79
2023/02/25 07:58:59;;;;;;;4.90;4.80;;;8.80;99.90;;;;;;5076317;28;20452;-76
2023/02/25 08:01:30;;;;;;;5.30;4.97;;;8.80;99.90;;;;;;5063520;28;20466;-77
2023/02/25 08:04:02;;;;;;;5.67;5.20;;;8.90;99.90;;;;;;5063193;28;20490;-76
2023/02/25 08:06:31;;;;;;;5.23;4.90;;;9.00;99.90;;;;;;5058141;28;20494;-76
2023/02/25 08:08:59;;;;;;;5.07;4.87;;;9.30;99.90;;;;;;5054496;28;20473;-78
2023/02/25 08:11:27;;;;;;;5.27;5.07;;;9.60;99.90;;;;;;5058400;28;20457;-76
2023/02/25 08:13:55;;;;;;;5.57;5.37;;;9.90;99.90;;;;;;5057989;28;21270;-74
2023/02/25 08:16:23;;;;;;;5.20;5.00;;;10.20;99.90;;;;;;5061529;28;20486;-76
2023/02/25 08:18:53;;;;;;;5.17;4.80;;;10.50;99.90;;;;;;5055386;28;20457;-77
2023/02/25 08:21:23;;;;;;;5.03;4.73;;;10.60;99.90;;;;;;5055492;28;20450;-77
2023/02/25 08:23:52;;;;;;;5.40;5.00;;;11.00;99.90;;;;;;5035582;28;20571;-78
2023/02/25 08:26:22;;;;;;;5.07;4.87;;;11.40;99.90;;;;;;5059670;28;20445;-76
2023/02/25 08:28:51;;;;;;;4.80;4.50;;;11.60;99.90;;;;;;5037785;28;21071;-79
2023/02/25 08:31:20;;;;;;;5.47;5.23;;;11.70;99.90;;;;;;5061897;28;20498;-78
2023/02/25 08:33:51;;;;;;;4.40;4.20;;;11.60;99.90;;;;;;5057904;28;20524;-78
2023/02/25 08:36:22;;;;;;;4.60;4.33;;;11.50;99.90;;;;;;5042412;28;21239;-77
2023/02/25 08:38:51;;;;;;;4.50;4.20;;;11.20;99.90;;;;;;5052495;28;20451;-77
2023/02/25 08:41:20;;;;;;;4.80;4.60;;;11.00;99.90;;;;;;5052461;28;20456;-78
2023/02/25 08:43:50;;;;;;;4.67;4.47;;;10.70;99.90;;;;;;5061508;28;20485;-77
2023/02/25 08:46:18;;;;;;;4.80;4.40;;;10.30;99.90;;;;;;5059379;28;20490;-77
2023/02/25 08:48:49;;;;;;;4.67;4.47;;;9.90;99.90;;;;;;5062848;28;20487;-76
2023/02/25 08:51:17;;;;;;;4.20;4.03;;;9.70;99.90;;;;;;5062587;28;20535;-77
2023/02/25 08:53:47;;;;;;;4.43;4.30;;;9.40;99.90;;;;;;5046992;28;20876;-76
2023/02/25 08:56:16;;;;;;;4.13;3.93;;;9.30;99.90;;;;;;5061423;28;20976;-77
2023/02/25 08:58:44;;;;;;;4.30;4.10;;;9.20;99.90;;;;;;5064532;28;20931;-78
2023/02/25 09:01:14;;;;;;;4.70;4.30;;;9.00;99.90;;;;;;5055639;28;20445;-78
2023/02/25 09:03:50;;;;;;;4.23;3.83;;;8.80;99.90;;;;;;5061477;28;20221;-75
2023/02/25 09:06:19;;;;;;;4.40;4.10;;;8.80;99.90;;;;;;5055817;28;20452;-80
2023/02/25 09:08:54;;;;;;;5.63;4.73;;;8.80;99.90;;;;;;5050989;28;20510;-78
2023/02/25 09:11:28;;;;;;;4.83;4.63;;;8.80;99.90;;;;;;5053654;28;20527;-77
2023/02/25 09:13:59;;;;;;;5.27;4.87;;;8.80;99.90;;;;;;5062215;28;21037;-75
2023/02/25 09:16:29;;;;;;;4.67;4.37;;;8.90;99.90;;;;;;5062374;28;20545;-77
2023/02/25 09:18:57;;;;;;;4.90;4.50;;;8.80;99.90;;;;;;5061910;28;20534;-77
2023/02/25 09:21:25;;;;;;;5.00;4.60;;;8.90;99.90;;;;;;5062507;28;20487;-78
2023/02/25 09:23:55;;;;;;;4.70;4.40;;;9.10;99.90;;;;;;5060938;28;20482;-76
2023/02/25 09:26:24;;;;;;;4.90;4.60;;;9.40;99.90;;;;;;5056693;28;20458;-79
2023/02/25 09:28:52;;;;;;;4.33;4.13;;;9.90;99.90;;;;;;5056393;28;20481;-79
2023/02/25 09:31:20;;;;;;;5.23;4.70;;;10.60;99.90;;;;;;5057686;28;20583;-79
2023/02/25 09:33:48;;;;;;;4.50;4.37;;;12.20;99.90;;;;;;5054434;28;20478;-78
2023/02/25 09:36:19;;;;;;;4.10;3.80;;;13.30;99.90;;;;;;5056738;28;20503;-77
2023/02/25 09:38:50;;;;;;;5.23;4.93;;;14.90;99.90;;;;;;5053058;28;20482;-79
2023/02/25 09:41:27;;;;;;;4.50;4.10;;;16.10;99.90;;;;;;5064286;28;20524;-80
2023/02/25 09:44:04;;;;;;;5.57;5.03;;;17.00;99.90;;;;;;5067765;28;20847;-79
2023/02/25 09:46:36;;;;;;;5.43;5.10;;;18.10;99.90;;;;;;5071315;28;20543;-79
2023/02/25 09:49:12;;;;;;;6.50;5.23;;;18.50;99.90;;;;;;5070245;28;20467;-79
2023/02/25 09:51:44;;;;;;;3.90;3.70;;;16.60;99.90;;;;;;5076941;28;20460;-77
2023/02/25 09:54:20;;;;;;;4.20;3.90;;;14.90;92.40;;;;;;5075555;28;21322;-78
2023/02/25 09:56:50;;;;;;;4.10;3.90;;;13.50;77.00;;;;;;5074325;28;20496;-78
2023/02/25 09:59:20;;;;;;;3.90;3.60;;;12.70;65.60;;;;;;5077864;28;20442;-79
2023/02/25 10:01:54;;;;;;;3.47;3.30;;;12.10;58.00;;;;;;5076014;28;21054;-79
2023/02/25 10:04:30;;;;;;;3.60;3.30;;;12.40;59.20;;;;;;5077536;28;20941;-78
2023/02/25 10:07:03;;;;;;;3.30;3.10;;;12.60;63.60;;;;;;5079304;28;20516;-79
2023/02/25 10:09:39;;;;;;;4.60;3.47;;;13.30;74.10;;;;;;5078717;28;21000;-79
2023/02/25 10:12:19;;;;;;;3.50;3.10;;;14.60;91.30;;;;;;5073048;28;20476;-76
2023/02/25 10:14:59;;;;;;;2.80;2.70;;;14.50;87.30;;;;;;5075232;28;20493;-79
2023/02/25 10:17:42;;;;;;;3.43;3.10;;;13.70;71.80;;;;;;5074375;28;21136;-79
2023/02/25 10:20:37;;;;;;;2.70;2.53;;;13.00;60.00;;;;;;5074825;28;21156;-79
2023/02/25 10:23:16;;;;;;;2.40;2.30;;;12.30;52.50;;;;;;5081564;28;21021;-81
2023/02/25 10:25:56;;;;;;;3.00;2.80;;;11.70;48.00;;;;;;5077041;28;20448;-78
2023/02/25 10:28:26;;;;;;;4.20;2.93;;;11.50;47.50;;;;;;5076022;28;21258;-78
2023/02/25 10:30:59;;;;;;;3.00;2.80;;;11.30;44.40;;;;;;5073144;28;20458;-80
2023/02/25 10:33:33;;;;;;;2.90;2.77;;;11.10;42.00;;;;;;5072942;28;20488;-78
2023/02/25 10:36:09;;;;;;;3.23;3.00;;;11.00;42.90;;;;;;5073829;28;20450;-78
2023/02/25 10:38:41;;;;;;;4.87;3.03;;;10.90;40.40;;;;;;5075437;28;20560;-80
2023/02/25 10:41:10;;;;;;;3.50;3.30;;;10.60;39.00;;;;;;5072313;28;20541;-80
2023/02/25 10:43:39;;;;;;;3.00;2.90;;;10.40;37.90;;;;;;5073999;28;21135;-78
2023/02/25 10:46:14;;;;;;;3.70;3.60;;;10.40;38.60;;;;;;5076685;28;20601;-77
2023/02/25 10:48:46;;;;;;;3.60;3.30;;;10.50;40.60;;;;;;5077387;28;20452;-77
2023/02/25 10:51:15;;;;;;;3.07;2.97;;;11.20;46.30;;;;;;5052855;28;20458;-78
2023/02/25 10:54:05;;;;;;;3.43;3.33;;;12.70;61.80;;;;;;5073203;28;20971;-78
2023/02/25 10:56:41;;;;;;;3.80;3.60;;;13.50;74.60;;;;;;5077550;28;20552;-76
2023/02/25 10:59:25;;;;;;;3.73;3.53;;;14.60;84.20;;;;;;5082720;28;20487;-77
2023/02/25 11:01:58;;;;;;;3.80;3.70;;;16.30;96.50;;;;;;5081871;28;20538;-79
2023/02/25 11:04:32;;;;;;;3.43;3.23;;;15.80;91.00;;;;;;5074486;28;20489;-78
2023/02/25 11:07:01;;;;;;;4.23;3.10;;;15.30;85.00;;;;;;5076457;28;20458;-79
2023/02/25 11:09:35;;;;;;;3.20;3.00;;;14.90;79.20;;;;;;5078551;28;20881;-78
2023/02/25 11:12:18;;;;;;;3.20;3.00;;;14.20;67.50;;;;;;5076433;28;20497;-79
2023/02/25 11:14:48;;;;;;;6.43;3.00;;;13.30;55.00;;;;;;5056820;28;20808;-77
2023/02/25 11:17:19;;;;;;;2.60;2.43;;;12.50;49.00;;;;;;5059578;28;20799;-78
2023/02/25 11:19:50;;;;;;;3.40;3.20;;;12.00;44.40;;;;;;5063964;28;20451;-79
2023/02/25 11:22:25;;;;;;;4.27;3.97;;;11.50;40.50;;;;;;5056838;28;20453;-78
2023/02/25 11:24:59;;;;;;;4.83;4.40;;;11.10;37.70;;;;;;5053691;28;20534;-78
2023/02/25 11:27:33;;;;;;;4.00;3.80;;;10.90;36.40;;;;;;5058861;28;20460;-77
2023/02/25 11:30:16;;;;;;;3.80;3.63;;;10.70;34.50;;;;;;5058504;28;21199;-77
2023/02/25 11:32:48;;;;;;;4.20;3.90;;;10.50;34.00;;;;;;5058500;28;20576;-79
2023/02/25 11:35:20;;;;;;;3.03;2.93;;;10.60;35.50;;;;;;5060099;28;20446;-79
2023/02/25 11:37:48;;;;;;;3.37;3.27;;;10.90;39.50;;;;;;5064297;28;20449;-78
2023/02/25 11:40:25;;;;;;;2.97;2.87;;;10.90;53.00;;;;;;5059675;28;20480;-77
2023/02/25 11:43:15;;;;;;;3.30;3.10;;;10.80;36.70;;;;;;5050308;28;20516;-77
2023/02/25 11:45:55;;;;;;;3.80;3.60;;;10.60;33.40;;;;;;5052056;28;21126;-79
2023/02/25 11:48:28;;;;;;;3.67;3.57;;;10.70;36.60;;;;;;5051315;28;20466;-77
2023/02/25 11:51:04;;;;;;;4.13;3.87;;;10.70;36.60;;;;;;5054106;28;20562;-76
2023/02/25 11:53:46;;;;;;;3.20;3.10;;;10.70;37.50;;;;;;5055792;28;20490;-78
2023/02/25 11:56:24;;;;;;;4.00;3.70;;;10.60;36.50;;;;;;5061000;28;20951;-77
2023/02/25 11:59:05;;;;;;;4.50;4.20;;;10.60;37.50;;;;;;5038637;28;20478;-75
2023/02/25 12:01:47;;;;;;;4.47;4.10;;;10.40;35.30;;;;;;5058023;28;20465;-78
2023/02/25 12:04:39;;;;;;;3.20;3.10;;;10.20;32.90;;;;;;5055715;28;20484;-78
2023/02/25 12:07:26;;;;;;;3.93;3.63;;;10.20;32.40;;;;;;5060780;28;20548;-77
2023/02/25 12:10:24;;;;;;;3.50;3.40;;;10.00;31.30;;;;;;5054489;28;20484;-77
2023/02/25 12:13:28;;;;;;;3.83;3.53;;;9.90;30.70;;;;;;5036959;28;20482;-76
2023/02/25 12:16:45;;;;;;;3.30;3.10;;;9.80;29.70;;;;;;5025615;28;20501;-75
2023/02/25 12:19:39;;;;;;;3.73;3.53;;;9.70;28.70;;;;;;5064712;28;20446;-77
2023/02/25 12:22:35;;;;;;;3.70;3.60;;;9.70;28.50;;;;;;5062533;28;20991;-76
2023/02/25 12:25:25;;;;;;;3.43;3.33;;;9.70;31.50;;;;;;5061482;28;20471;-78
2023/02/25 12:28:30;;;;;;;4.00;3.80;;;9.80;35.10;;;;;;5063994;28;20455;-73
2023/02/25 12:31:35;;;;;;;5.00;4.80;;;9.80;33.40;;;;;;5065957;28;20509;-76
2023/02/25 12:34:37;;;;;;;4.13;3.80;;;9.80;33.70;;;;;;5060718;28;20561;-78
2023/02/25 12:37:29;;;;;;;3.97;3.77;;;9.70;33.30;;;;;;5052151;28;20564;-78
2023/02/25 12:40:08;;;;;;;3.97;3.67;;;9.50;31.80;;;;;;5065726;28;20456;-79
2023/02/25 12:42:48;;;;;;;3.77;3.60;;;9.40;30.30;;;;;;5059428;28;20801;-78
2023/02/25 12:45:36;;;;;;;4.33;4.13;;;9.40;32.40;;;;;;5059758;28;20454;-76
2023/02/25 12:48:32;;;;;;;4.20;4.07;;;9.50;33.90;;;;;;5066827;28;20517;-77
2023/02/25 12:51:42;;;;;;;4.50;4.30;;;9.40;33.40;;;;;;5061219;28;20468;-73
2023/02/25 12:54:33;;;;;;;4.53;4.33;;;9.50;34.20;;;;;;5029984;28;20512;-77
2023/02/25 12:57:17;;;;;;;3.97;3.77;;;9.50;35.10;;;;;;5062859;28;20445;-78
2023/02/25 13:00:23;;;;;;;4.13;3.90;;;9.50;36.70;;;;;;5064196;28;20461;-78
2023/02/25 13:03:14;;;;;;;3.67;3.47;;;9.20;33.30;;;;;;5040025;28;20476;-77
2023/02/25 13:06:06;;;;;;;3.90;3.60;;;9.00;32.00;;;;;;5061203;28;20515;-75
2023/02/25 13:08:51;;;;;;;3.70;3.50;;;8.90;30.90;;;;;;5065538;28;20804;-76
2023/02/25 13:11:27;;;;;;;4.10;3.80;;;9.00;31.30;;;;;;5063438;28;20496;-77
2023/02/25 13:14:28;;;;;;;3.47;3.37;;;9.00;30.90;;;;;;5045520;28;21373;-77
2023/02/25 13:17:12;;;;;;;4.13;3.87;;;8.90;31.80;;;;;;5047381;28;20468;-77
2023/02/25 13:20:19;;;;;;;4.00;3.80;;;8.90;34.00;;;;;;5059671;28;20458;-77
2023/02/25 13:22:56;;;;;;;4.03;3.83;;;8.80;33.90;;;;;;5045098;28;20473;-76